This is the latest recevied weather packets stored in our database for station/object AE6BH. If no packets are shown the sender has not sent any weather packets the latest 10 day(s).
| Time | Temp. | Humidity | Pressure | Rain* | Wind** | Luminosity | Snow |
|---|---|---|---|---|---|---|---|
| 1778099268 | 21.67° C | 52% | 1017.2 hPa | 0 mm | - | 687 W/m² | - |
| 1778098965 | 21.67° C | 50% | 1017.4 hPa | 0 mm | - | 695 W/m² | - |
| 1778098662 | 21.67° C | 50% | 1017.2 hPa | 0 mm | - | 744 W/m² | - |
| 1778098358 | 22.22° C | 48% | 1017.2 hPa | 0 mm | - | 743 W/m² | - |
| 1778098056 | 22.78° C | 48% | 1017.2 hPa | 0 mm | - | 737 W/m² | - |
| 1778097752 | 22.22° C | 48% | 1017.5 hPa | 0 mm | - | 729 W/m² | - |
| 1778097448 | 22.22° C | 48% | 1017.2 hPa | 0 mm | - | 734 W/m² | - |
| 1778097145 | 23.89° C | 45% | 1017.2 hPa | 0 mm | - | 738 W/m² | - |
| 1778096842 | 23.89° C | 44% | 1017.1 hPa | 0 mm | - | 746 W/m² | - |
| 1778096539 | 23.33° C | 45% | 1017.4 hPa | 0 mm | - | 751 W/m² | - |
| 1778096237 | 22.22° C | 47% | 1017.5 hPa | 0 mm | - | 752 W/m² | - |
| 1778095933 | 22.78° C | 46% | 1017.6 hPa | 0 mm | - | 741 W/m² | - |
| 1778095630 | 22.78° C | 46% | 1017.7 hPa | 0 mm | - | 754 W/m² | - |
| 1778095326 | 22.22° C | 46% | 1017.6 hPa | 0 mm | - | 752 W/m² | - |
| 1778095024 | 22.22° C | 46% | 1017.7 hPa | 0 mm | - | 756 W/m² | - |
| 1778094719 | 22.78° C | 45% | 1017.6 hPa | 0 mm | - | 756 W/m² | - |
| 1778094417 | 22.78° C | 46% | 1017.6 hPa | 0 mm | - | 756 W/m² | - |
| 1778094113 | 21.67° C | 47% | 1017.7 hPa | 0 mm | - | 776 W/m² | - |
| 1778093811 | 21.67° C | 45% | 1018 hPa | 0 mm | - | 764 W/m² | - |
| 1778093506 | 21.11° C | 47% | 1017.7 hPa | 0 mm | - | 748 W/m² | - |
| 1778093205 | 21.11° C | 48% | 1018 hPa | 0 mm | - | 753 W/m² | - |
| 1778092902 | 21.67° C | 46% | 1018.2 hPa | 0 mm | - | 774 W/m² | - |
| 1778092598 | 22.22° C | 46% | 1017.9 hPa | 0 mm | - | 770 W/m² | - |
| 1778092294 | 22.22° C | 44% | 1018.2 hPa | 0 mm | - | 753 W/m² | - |
| 1778091992 | 21.11° C | 47% | 1018.2 hPa | 0 mm | - | 746 W/m² | - |
* Rain latest hour (hover to see other rain measurements)
** Current wind speed in m/s (hover to see current wind gust speed)